createdAt,value
2018-04-02T00:00:32.266Z,0.00
2018-04-02T00:01:32.318Z,0.00
2018-04-02T00:02:32.366Z,0.00
2018-04-02T00:03:32.438Z,0.00
2018-04-02T00:04:32.494Z,0.00
2018-04-02T00:05:32.555Z,0.00
2018-04-02T00:06:32.619Z,0.00
2018-04-02T00:07:32.670Z,0.00
2018-04-02T00:08:32.754Z,0.00
2018-04-02T00:09:32.796Z,0.00
2018-04-02T00:10:32.863Z,0.00
2018-04-02T00:11:32.927Z,0.00
2018-04-02T00:12:32.984Z,0.00
2018-04-02T00:13:33.035Z,0.00
2018-04-02T00:14:33.121Z,0.00
2018-04-02T00:15:33.175Z,0.00
2018-04-02T00:16:33.219Z,0.00
2018-04-02T00:17:33.279Z,0.00
2018-04-02T00:18:33.343Z,0.00
2018-04-02T00:19:33.402Z,0.00
2018-04-02T00:20:33.466Z,0.00
2018-04-02T00:21:33.527Z,0.00
2018-04-02T00:22:34.003Z,0.00
2018-04-02T00:23:33.658Z,0.00
2018-04-02T00:24:33.703Z,0.00
2018-04-02T00:25:33.771Z,0.00
2018-04-02T00:26:35.844Z,0.00
2018-04-02T00:27:33.883Z,0.00
2018-04-02T00:28:33.947Z,0.00
2018-04-02T00:29:34.003Z,0.00
2018-04-02T00:30:34.072Z,0.00
2018-04-02T00:31:34.156Z,0.00
2018-04-02T00:32:34.187Z,0.00
2018-04-02T00:33:34.256Z,0.00
2018-04-02T00:34:34.308Z,0.00
2018-04-02T00:35:34.375Z,0.00
2018-04-02T00:36:34.436Z,0.00
2018-04-02T00:37:34.493Z,0.00
2018-04-02T00:38:34.564Z,0.00
2018-04-02T00:39:34.612Z,0.00
2018-04-02T00:40:34.684Z,0.00
2018-04-02T00:41:34.744Z,0.00
2018-04-02T00:42:34.792Z,0.00
2018-04-02T00:43:34.887Z,0.00
2018-04-02T00:44:34.915Z,0.00
2018-04-02T00:45:34.988Z,0.00
2018-04-02T00:46:35.044Z,0.00
2018-04-02T00:47:35.101Z,0.00
2018-04-02T00:48:35.156Z,0.00
2018-04-02T00:49:35.229Z,0.00
2018-04-02T00:50:35.356Z,0.00
2018-04-02T00:51:35.340Z,0.00
2018-04-02T00:52:35.400Z,0.00
2018-04-02T00:53:35.488Z,0.00
2018-04-02T00:54:35.528Z,0.00
2018-04-02T00:55:35.588Z,0.00
2018-04-02T00:56:35.648Z,0.00
2018-04-02T00:57:35.704Z,0.00
2018-04-02T00:58:35.764Z,0.00
2018-04-02T00:59:35.829Z,0.00
2018-04-02T01:00:35.906Z,0.00
2018-04-02T01:01:35.949Z,0.00
2018-04-02T01:02:36.025Z,0.00
2018-04-02T01:03:36.069Z,0.00
2018-04-02T01:04:36.144Z,0.00
2018-04-02T01:05:36.301Z,0.00
2018-04-02T01:06:36.250Z,0.00
2018-04-02T01:07:36.308Z,0.00
2018-04-02T01:08:36.380Z,0.00
2018-04-02T01:09:36.429Z,0.00
2018-04-02T01:10:36.497Z,0.00
2018-04-02T01:11:36.573Z,0.00
2018-04-02T01:12:36.617Z,0.00
2018-04-02T01:13:36.713Z,0.00
2018-04-02T01:14:36.737Z,0.00
2018-04-02T01:15:37.416Z,0.00
2018-04-02T01:16:36.857Z,0.00
2018-04-02T01:17:36.937Z,0.00
2018-04-02T01:18:39.893Z,0.00
2018-04-02T01:19:37.058Z,0.00
2018-04-02T01:20:37.293Z,0.00
2018-04-02T01:21:37.170Z,0.00
2018-04-02T01:22:37.218Z,0.00
2018-04-02T01:23:37.309Z,0.00
2018-04-02T01:24:37.373Z,0.00
2018-04-02T01:25:37.445Z,0.00
2018-04-02T01:26:37.469Z,0.00
2018-04-02T01:27:37.518Z,0.00
2018-04-02T01:28:37.613Z,0.00
2018-04-02T01:29:37.678Z,0.00
2018-04-02T01:30:37.726Z,0.00
2018-04-02T01:31:37.816Z,0.00
2018-04-02T01:32:37.834Z,0.00
2018-04-02T01:33:37.946Z,0.00
2018-04-02T01:34:37.950Z,0.00
2018-04-02T01:35:38.054Z,0.00
2018-04-02T01:36:38.078Z,0.00
2018-04-02T01:37:38.158Z,0.00
2018-04-02T01:38:38.194Z,0.00
2018-04-02T01:39:38.278Z,0.00
2018-04-02T01:40:38.410Z,0.00
2018-04-02T01:41:38.390Z,0.00
2018-04-02T01:42:38.426Z,0.00
2018-04-02T01:43:38.498Z,0.00
2018-04-02T01:44:38.590Z,0.00
2018-04-02T01:45:38.641Z,0.00
2018-04-02T01:46:38.695Z,0.00
2018-04-02T01:47:38.730Z,0.00
2018-04-02T01:48:38.858Z,0.00
2018-04-02T01:49:38.891Z,0.00
2018-04-02T01:50:38.938Z,0.00
2018-04-02T01:51:38.991Z,0.00
2018-04-02T01:52:39.034Z,0.00
2018-04-02T01:53:39.095Z,0.00
2018-04-02T01:54:39.203Z,0.00
2018-04-02T01:55:39.303Z,0.00
2018-04-02T01:56:39.586Z,0.00
2018-04-02T01:57:39.354Z,0.00
2018-04-02T01:58:39.394Z,0.00
2018-04-02T01:59:39.454Z,0.00
2018-04-02T02:00:39.567Z,0.00
2018-04-02T02:01:39.619Z,0.00
2018-04-02T02:02:39.635Z,0.00
2018-04-02T02:03:39.719Z,0.00
2018-04-02T02:04:39.754Z,0.00
2018-04-02T02:05:40.028Z,0.00
2018-04-02T02:06:39.891Z,0.00
2018-04-02T02:07:39.967Z,0.00
2018-04-02T02:08:40.019Z,0.00
2018-04-02T02:09:40.115Z,0.00
2018-04-02T02:10:40.124Z,0.00
2018-04-02T02:11:40.515Z,0.00
2018-04-02T02:12:40.246Z,0.00
2018-04-02T02:13:40.307Z,0.00
2018-04-02T02:14:40.355Z,0.00
2018-04-02T02:15:40.428Z,0.00
2018-04-02T02:16:40.492Z,0.00
2018-04-02T02:17:40.672Z,0.00
2018-04-02T02:18:40.633Z,0.00
2018-04-02T02:19:40.717Z,0.00
2018-04-02T02:20:40.748Z,0.00
2018-04-02T02:21:40.783Z,0.00
2018-04-02T02:22:40.883Z,0.00
2018-04-02T02:23:40.940Z,0.00
2018-04-02T02:24:40.980Z,0.00
2018-04-02T02:25:41.035Z,0.00
2018-04-02T02:26:41.083Z,0.00
2018-04-02T02:27:41.180Z,0.00
2018-04-02T02:28:41.208Z,0.00
2018-04-02T02:29:41.276Z,0.00
2018-04-02T02:30:41.328Z,0.00
2018-04-02T02:31:41.383Z,0.00
2018-04-02T02:32:41.477Z,0.00
2018-04-02T02:33:41.551Z,0.00
2018-04-02T02:34:41.586Z,0.00
2018-04-02T02:35:41.621Z,0.00
2018-04-02T02:36:41.704Z,0.00
2018-04-02T02:37:41.785Z,0.00
2018-04-02T02:38:41.817Z,0.00
2018-04-02T02:39:41.882Z,0.00
2018-04-02T02:40:41.945Z,0.00
2018-04-02T02:41:42.010Z,0.00
2018-04-02T02:42:42.080Z,0.00
2018-04-02T02:43:42.232Z,0.00
2018-04-02T02:44:42.180Z,0.00
2018-04-02T02:45:42.237Z,0.00
2018-04-02T02:46:42.355Z,0.00
2018-04-02T02:47:42.669Z,0.00
2018-04-02T02:48:42.418Z,0.00
2018-04-02T02:49:42.491Z,0.00
2018-04-02T02:50:42.521Z,0.00
2018-04-02T02:51:42.587Z,0.00
2018-04-02T02:52:42.663Z,0.00
2018-04-02T02:53:43.034Z,0.00
2018-04-02T02:54:42.773Z,0.00
2018-04-02T02:55:42.877Z,0.00
2018-04-02T02:56:42.901Z,0.00
2018-04-02T02:57:42.959Z,0.00
2018-04-02T02:58:43.010Z,0.00
2018-04-02T02:59:43.178Z,0.00
2018-04-02T03:00:43.128Z,0.00
2018-04-02T03:01:43.189Z,0.00
2018-04-02T03:02:43.250Z,0.00
2018-04-02T03:03:43.306Z,0.00
2018-04-02T03:04:43.394Z,0.00
2018-04-02T03:05:43.462Z,0.00
2018-04-02T03:06:43.482Z,0.00
2018-04-02T03:07:43.546Z,0.00
2018-04-02T03:08:43.604Z,0.00
2018-04-02T03:09:43.698Z,0.00
2018-04-02T03:10:43.742Z,0.00
2018-04-02T03:11:43.793Z,0.00
2018-04-02T03:12:43.861Z,0.00
2018-04-02T03:13:43.921Z,0.00
2018-04-02T03:14:43.982Z,0.00
2018-04-02T03:15:44.046Z,0.00
2018-04-02T03:16:44.083Z,0.00
2018-04-02T03:17:44.154Z,0.00
2018-04-02T03:18:44.205Z,0.00
2018-04-02T03:19:44.422Z,0.00
2018-04-02T03:20:44.326Z,0.00
2018-04-02T03:21:44.405Z,0.00
2018-04-02T03:22:44.447Z,0.00
2018-04-02T03:23:44.533Z,0.00
2018-04-02T03:24:44.591Z,0.00
2018-04-02T03:25:44.671Z,0.00
2018-04-02T03:26:44.718Z,0.00
2018-04-02T03:27:44.769Z,0.00
2018-04-02T03:28:44.806Z,0.00
2018-04-02T03:29:44.874Z,0.00
2018-04-02T03:30:44.942Z,0.00
2018-04-02T03:31:44.999Z,0.00
2018-04-02T03:32:45.050Z,0.00
2018-04-02T03:33:45.114Z,0.00
2018-04-02T03:34:45.282Z,0.00
2018-04-02T03:35:45.234Z,0.00
2018-04-02T03:36:45.314Z,0.00
2018-04-02T03:37:45.395Z,0.00
2018-04-02T03:38:45.415Z,0.00
2018-04-02T03:39:45.467Z,0.00
2018-04-02T03:40:45.539Z,0.00
2018-04-02T03:41:45.611Z,0.00
2018-04-02T03:42:45.643Z,0.00
2018-04-02T03:43:45.706Z,0.00
2018-04-02T03:44:45.787Z,0.00
2018-04-02T03:45:45.835Z,0.00
2018-04-02T03:46:45.891Z,0.00
2018-04-02T03:47:45.963Z,0.00
2018-04-02T03:48:46.019Z,0.00
2018-04-02T03:49:46.078Z,0.00
2018-04-02T03:50:46.131Z,0.00
2018-04-02T03:51:46.194Z,0.00
2018-04-02T03:52:46.250Z,0.00
2018-04-02T03:53:46.518Z,0.00
2018-04-02T03:54:46.367Z,0.00
2018-04-02T03:55:46.551Z,0.00
2018-04-02T03:56:46.493Z,0.00
2018-04-02T03:57:46.555Z,0.00
2018-04-02T03:58:46.603Z,0.00
2018-04-02T03:59:46.675Z,0.00
2018-04-02T04:00:46.743Z,0.00
2018-04-02T04:01:46.800Z,0.00
2018-04-02T04:02:46.843Z,0.00
2018-04-02T04:03:46.915Z,0.00
2018-04-02T04:04:46.983Z,0.00
2018-04-02T04:05:47.035Z,0.00
2018-04-02T04:06:47.088Z,0.00
2018-04-02T04:07:47.162Z,0.00
2018-04-02T04:08:47.212Z,0.00
2018-04-02T04:09:47.276Z,0.00
2018-04-02T04:10:47.353Z,0.00
2018-04-02T04:11:47.387Z,0.00
2018-04-02T04:12:47.444Z,0.00
2018-04-02T04:13:47.504Z,0.00
2018-04-02T04:14:47.564Z,0.00
2018-04-02T04:15:47.628Z,0.00
2018-04-02T04:16:47.688Z,0.00
2018-04-02T04:17:47.768Z,0.00
2018-04-02T04:18:47.799Z,0.00
2018-04-02T04:19:47.860Z,0.00
2018-04-02T04:20:47.928Z,0.00
2018-04-02T04:21:47.992Z,0.00
2018-04-02T04:22:48.044Z,0.00
2018-04-02T04:23:48.100Z,0.00
2018-04-02T04:24:48.160Z,0.00
2018-04-02T04:25:48.252Z,0.00
2018-04-02T04:26:48.280Z,0.00
2018-04-02T04:27:48.340Z,0.00
2018-04-02T04:28:48.400Z,0.00
2018-04-02T04:29:48.460Z,0.00
2018-04-02T04:30:48.524Z,0.00
2018-04-02T04:31:48.584Z,0.00
2018-04-02T04:32:48.640Z,0.00
2018-04-02T04:33:48.712Z,0.00
2018-04-02T04:34:48.760Z,0.00
2018-04-02T04:35:48.829Z,4.00
2018-04-02T04:36:48.888Z,0.00
2018-04-02T04:37:48.941Z,0.00
2018-04-02T04:38:48.997Z,4.00
2018-04-02T04:39:49.057Z,4.00
2018-04-02T04:40:49.313Z,4.00
2018-04-02T04:41:49.181Z,8.00
2018-04-02T04:42:49.239Z,8.00
2018-04-02T04:43:49.296Z,8.00
2018-04-02T04:44:49.357Z,4.00
2018-04-02T04:45:49.425Z,8.00
2018-04-02T04:46:49.505Z,12.00
2018-04-02T04:47:49.547Z,12.00
2018-04-02T04:48:49.613Z,12.00
2018-04-02T04:49:49.665Z,12.00
2018-04-02T04:50:49.717Z,16.00
2018-04-02T04:51:49.785Z,20.00
2018-04-02T04:52:49.839Z,24.00
2018-04-02T04:53:49.893Z,28.00
2018-04-02T04:54:49.957Z,32.00
2018-04-02T04:55:50.021Z,40.00
2018-04-02T04:56:50.081Z,48.00
2018-04-02T04:57:50.141Z,56.00
2018-04-02T04:58:50.193Z,68.00
2018-04-02T04:59:50.257Z,80.00
2018-04-02T05:00:50.330Z,88.00
2018-04-02T05:01:50.374Z,96.00
2018-04-02T05:02:50.437Z,108.00
2018-04-02T05:03:50.494Z,124.00
2018-04-02T05:04:50.561Z,132.00
2018-04-02T05:05:50.625Z,144.00
2018-04-02T05:06:50.678Z,156.00
2018-04-02T05:07:50.730Z,168.00
2018-04-02T05:08:50.790Z,184.00
2018-04-02T05:09:50.858Z,196.00
2018-04-02T05:10:50.917Z,208.00
2018-04-02T05:11:50.981Z,224.00
2018-04-02T05:12:51.030Z,244.00
2018-04-02T05:13:51.091Z,256.00
2018-04-02T05:14:51.150Z,276.00
2018-04-02T05:15:51.210Z,300.00
2018-04-02T05:16:51.430Z,324.00
2018-04-02T05:17:51.330Z,348.00
2018-04-02T05:18:51.394Z,372.00
2018-04-02T05:19:51.446Z,396.00
2018-04-02T05:20:51.510Z,424.00
2018-04-02T05:21:51.574Z,448.00
2018-04-02T05:22:51.661Z,468.00
2018-04-02T05:23:51.691Z,496.00
2018-04-02T05:24:51.751Z,536.00
2018-04-02T05:25:51.806Z,580.00
2018-04-02T05:26:51.878Z,632.00
2018-04-02T05:27:51.935Z,660.00
2018-04-02T05:28:51.989Z,672.00
2018-04-02T05:29:52.057Z,688.00
2018-04-02T05:30:52.110Z,700.00
2018-04-02T05:31:52.416Z,724.00
2018-04-02T05:32:52.227Z,752.00
2018-04-02T05:33:52.287Z,784.00
2018-04-02T05:34:52.347Z,828.00
2018-04-02T05:35:52.403Z,864.00
2018-04-02T05:36:52.475Z,880.00
2018-04-02T05:37:52.532Z,864.00
2018-04-02T05:38:52.589Z,856.00
2018-04-02T05:39:52.647Z,840.00
2018-04-02T05:40:52.703Z,796.00
2018-04-02T05:41:52.771Z,752.00
2018-04-02T05:42:52.834Z,760.00
2018-04-02T05:43:52.883Z,780.00
2018-04-02T05:44:52.942Z,816.00
2018-04-02T05:45:53.003Z,872.00
2018-04-02T05:46:53.072Z,932.00
2018-04-02T05:47:53.131Z,1012.00
2018-04-02T05:48:53.183Z,1076.00
2018-04-02T05:49:53.251Z,1100.00
2018-04-02T05:50:53.308Z,1116.00
2018-04-02T05:51:53.376Z,1144.00
2018-04-02T05:52:53.439Z,1148.00
2018-04-02T05:53:53.484Z,1152.00
2018-04-02T05:54:53.543Z,1192.00
2018-04-02T05:55:53.603Z,1256.00
2018-04-02T05:56:53.673Z,1276.00
2018-04-02T05:57:53.732Z,1332.00
2018-04-02T05:58:53.784Z,1404.00
2018-04-02T05:59:53.843Z,1460.00
2018-04-02T06:00:53.907Z,1492.00
2018-04-02T06:01:53.976Z,1524.00
2018-04-02T06:02:54.032Z,1616.00
2018-04-02T06:03:54.084Z,1752.00
2018-04-02T06:04:54.144Z,1828.00
2018-04-02T06:05:54.204Z,1940.00
2018-04-02T06:06:54.264Z,2048.00
2018-04-02T06:07:54.436Z,2192.00
2018-04-02T06:08:54.389Z,2336.00
2018-04-02T06:09:54.449Z,2604.00
2018-04-02T06:10:54.504Z,2932.00
2018-04-02T06:11:54.564Z,3184.00
2018-04-02T06:12:54.628Z,3352.00
2018-04-02T06:13:54.696Z,3400.00
2018-04-02T06:14:54.744Z,3312.00
2018-04-02T06:15:54.805Z,3156.00
2018-04-02T06:16:54.868Z,3136.00
2018-04-02T06:17:54.941Z,3228.00
2018-04-02T06:18:54.992Z,3356.00
2018-04-02T06:19:55.049Z,3460.00
2018-04-02T06:20:55.105Z,3576.00
2018-04-02T06:21:55.165Z,3680.00
2018-04-02T06:22:55.225Z,3824.00
2018-04-02T06:23:55.477Z,3956.00
2018-04-02T06:24:55.345Z,3972.00
2018-04-02T06:25:55.405Z,3940.00
2018-04-02T06:26:55.464Z,3844.00
2018-04-02T06:27:55.528Z,3660.00
2018-04-02T06:28:55.597Z,3528.00
2018-04-02T06:29:55.653Z,3464.00
2018-04-02T06:30:55.709Z,3468.00
2018-04-02T06:31:55.775Z,3580.00
2018-04-02T06:32:55.834Z,3780.00
2018-04-02T06:33:55.901Z,3984.00
2018-04-02T06:34:55.962Z,4096.00
2018-04-02T06:35:56.010Z,4072.00
2018-04-02T06:36:56.104Z,4012.00
2018-04-02T06:37:56.138Z,3920.00
2018-04-02T06:38:56.221Z,3856.00
2018-04-02T06:39:56.254Z,3744.00
2018-04-02T06:40:56.319Z,3612.00
2018-04-02T06:41:56.373Z,3472.00
2018-04-02T06:42:56.442Z,3408.00
2018-04-02T06:43:56.501Z,3312.00
2018-04-02T06:44:56.562Z,3176.00
2018-04-02T06:45:56.623Z,3000.00
2018-04-02T06:46:56.677Z,2836.00
2018-04-02T06:47:56.739Z,2740.00
2018-04-02T06:48:56.806Z,2696.00
2018-04-02T06:49:56.866Z,2696.00
2018-04-02T06:50:56.922Z,2712.00
2018-04-02T06:51:56.978Z,2748.00
2018-04-02T06:52:57.115Z,2812.00
2018-04-02T06:53:57.258Z,2836.00
2018-04-02T06:54:57.162Z,2856.00
2018-04-02T06:55:57.226Z,2924.00
2018-04-02T06:56:57.889Z,3020.00
2018-04-02T06:57:57.342Z,3140.00
2018-04-02T06:58:57.410Z,3200.00
2018-04-02T06:59:57.470Z,3148.00
2018-04-02T07:00:57.527Z,3036.00
2018-04-02T07:01:57.586Z,2968.00
2018-04-02T07:02:57.651Z,3012.00
2018-04-02T07:03:57.714Z,3088.00
2018-04-02T07:04:57.778Z,3180.00
2018-04-02T07:05:57.831Z,3360.00
2018-04-02T07:06:57.894Z,3548.00
2018-04-02T07:07:57.950Z,3580.00
2018-04-02T07:08:58.022Z,3540.00
2018-04-02T07:09:58.079Z,3712.00
2018-04-02T07:10:58.140Z,4012.00
2018-04-02T07:11:58.195Z,4340.00
2018-04-02T07:12:58.259Z,4484.00
2018-04-02T07:13:58.323Z,4716.00
2018-04-02T07:14:58.384Z,5080.00
2018-04-02T07:15:58.439Z,5436.00
2018-04-02T07:16:58.499Z,5516.00
2018-04-02T07:17:58.559Z,5460.00
2018-04-02T07:18:58.628Z,5380.00
2018-04-02T07:19:58.687Z,5276.00
2018-04-02T07:20:58.739Z,5280.00
2018-04-02T07:21:58.806Z,5428.00
2018-04-02T07:22:58.864Z,5448.00
2018-04-02T07:23:58.936Z,5328.00
2018-04-02T07:24:58.991Z,5312.00
2018-04-02T07:25:59.047Z,5256.00
2018-04-02T07:26:59.111Z,5144.00
2018-04-02T07:27:59.173Z,5188.00
2018-04-02T07:28:59.264Z,5488.00
2018-04-02T07:29:59.317Z,5948.00
2018-04-02T07:30:59.355Z,6552.00
2018-04-02T07:31:59.411Z,7300.00
2018-04-02T07:32:59.471Z,7896.00
2018-04-02T07:33:59.540Z,8284.00
2018-04-02T07:34:59.599Z,8580.00
2018-04-02T07:35:59.656Z,8292.00
2018-04-02T07:36:59.720Z,8024.00
2018-04-02T07:37:59.780Z,7652.00
2018-04-02T07:38:59.848Z,7496.00
2018-04-02T07:39:59.908Z,6892.00
2018-04-02T07:40:59.980Z,7024.00
2018-04-02T07:42:00.052Z,6252.00
2018-04-02T07:43:00.093Z,5776.00
2018-04-02T07:44:00.256Z,5516.00
2018-04-02T07:45:00.216Z,5312.00
2018-04-02T07:46:00.272Z,5104.00
2018-04-02T07:47:00.336Z,4916.00
2018-04-02T07:48:00.397Z,4760.00
2018-04-02T07:49:00.465Z,4728.00
2018-04-02T07:50:00.529Z,4732.00
2018-04-02T07:51:00.577Z,4728.00
2018-04-02T07:52:00.653Z,4748.00
2018-04-02T07:53:00.702Z,4748.00
2018-04-02T07:54:00.769Z,4768.00
2018-04-02T07:55:00.829Z,4836.00
2018-04-02T07:56:00.885Z,4892.00
2018-04-02T07:57:00.949Z,4924.00
2018-04-02T07:58:01.033Z,5020.00
2018-04-02T07:59:01.084Z,5144.00
2018-04-02T08:00:01.144Z,5392.00
2018-04-02T08:01:01.209Z,5752.00
2018-04-02T08:02:01.271Z,5940.00
2018-04-02T08:03:01.321Z,6196.00
2018-04-02T08:04:01.402Z,6532.00
2018-04-02T08:05:01.455Z,7004.00
2018-04-02T08:06:01.501Z,8156.00
2018-04-02T08:07:01.603Z,9632.00
2018-04-02T08:08:01.630Z,10336.00
2018-04-02T08:09:01.717Z,10664.00
2018-04-02T08:10:01.754Z,11476.00
2018-04-02T08:11:01.816Z,11348.00
2018-04-02T08:12:01.887Z,13736.00
2018-04-02T08:13:01.933Z,12128.00
2018-04-02T08:14:02.002Z,11460.00
2018-04-02T08:15:02.080Z,10080.00
2018-04-02T08:16:02.121Z,8060.00
2018-04-02T08:17:02.187Z,6760.00
2018-04-02T08:18:02.314Z,6380.00
2018-04-02T08:19:02.322Z,6456.00
2018-04-02T08:20:02.366Z,6692.00
2018-04-02T08:21:02.437Z,7164.00
2018-04-02T08:22:02.490Z,7584.00
2018-04-02T08:23:02.554Z,7800.00
2018-04-02T08:24:02.621Z,8128.00
2018-04-02T08:25:02.706Z,8240.00
2018-04-02T08:26:02.742Z,8396.00
2018-04-02T08:27:02.802Z,9220.00
2018-04-02T08:28:02.882Z,11048.00
2018-04-02T08:29:02.934Z,12024.00
2018-04-02T08:30:02.998Z,12204.00
2018-04-02T08:31:03.059Z,10556.00
2018-04-02T08:32:03.118Z,9700.00
2018-04-02T08:33:03.174Z,9596.00
2018-04-02T08:34:03.242Z,9464.00
2018-04-02T08:35:03.421Z,9872.00
2018-04-02T08:36:03.370Z,9348.00
2018-04-02T08:37:03.427Z,9324.00
2018-04-02T08:38:03.487Z,9844.00
2018-04-02T08:39:03.555Z,10364.00
2018-04-02T08:40:03.631Z,9668.00
2018-04-02T08:41:03.683Z,9140.00
2018-04-02T08:42:03.746Z,8972.00
2018-04-02T08:43:03.803Z,9120.00
2018-04-02T08:44:03.903Z,9116.00
2018-04-02T08:45:03.935Z,9120.00
2018-04-02T08:46:04.040Z,8800.00
2018-04-02T08:47:04.072Z,8488.00
2018-04-02T08:48:04.123Z,8536.00
2018-04-02T08:49:04.179Z,8144.00
2018-04-02T08:50:04.259Z,7472.00
2018-04-02T08:51:04.303Z,6496.00
2018-04-02T08:52:04.400Z,5640.00
2018-04-02T08:53:04.427Z,5312.00
2018-04-02T08:54:04.491Z,5308.00
2018-04-02T08:55:04.567Z,5452.00
2018-04-02T08:56:04.628Z,5736.00
2018-04-02T08:57:04.795Z,6072.00
2018-04-02T08:58:04.739Z,6288.00
2018-04-02T08:59:04.815Z,6380.00
2018-04-02T09:00:04.876Z,6268.00
2018-04-02T09:01:04.941Z,6108.00
2018-04-02T09:02:04.999Z,6044.00
2018-04-02T09:03:05.056Z,6204.00
2018-04-02T09:04:05.115Z,6468.00
2018-04-02T09:05:05.212Z,6616.00
2018-04-02T09:06:05.241Z,6688.00
2018-04-02T09:07:05.351Z,6616.00
2018-04-02T09:08:05.376Z,6480.00
2018-04-02T09:09:05.431Z,6468.00
2018-04-02T09:10:05.511Z,6536.00
2018-04-02T09:11:05.572Z,6588.00
2018-04-02T09:12:05.616Z,6740.00
2018-04-02T09:13:05.676Z,6980.00
2018-04-02T09:14:05.740Z,7196.00
2018-04-02T09:15:05.808Z,7396.00
2018-04-02T09:16:05.877Z,7676.00
2018-04-02T09:17:05.941Z,8052.00
2018-04-02T09:18:06.004Z,8540.00
2018-04-02T09:19:06.057Z,9008.00
2018-04-02T09:20:06.244Z,9336.00
2018-04-02T09:21:06.185Z,9344.00
2018-04-02T09:22:06.247Z,9276.00
2018-04-02T09:23:06.304Z,9396.00
2018-04-02T09:24:06.372Z,9464.00
2018-04-02T09:25:06.468Z,9544.00
2018-04-02T09:26:06.509Z,9672.00
2018-04-02T09:27:06.812Z,9836.00
2018-04-02T09:28:06.624Z,10128.00
2018-04-02T09:29:06.685Z,10556.00
2018-04-02T09:30:06.757Z,11208.00
2018-04-02T09:31:06.817Z,11700.00
2018-04-02T09:32:06.876Z,12056.00
2018-04-02T09:33:07.033Z,12196.00
2018-04-02T09:34:08.037Z,12440.00
2018-04-02T09:35:07.116Z,12808.00
2018-04-02T09:36:07.173Z,13268.00
2018-04-02T09:37:07.286Z,13620.00
2018-04-02T09:38:07.473Z,13852.00
2018-04-02T09:39:07.397Z,14212.00
2018-04-02T09:40:07.471Z,13848.00
2018-04-02T09:41:07.509Z,13780.00
2018-04-02T09:42:07.545Z,13568.00
2018-04-02T09:43:07.601Z,14132.00
2018-04-02T09:44:07.966Z,15168.00
2018-04-02T09:45:07.757Z,15084.00
2018-04-02T09:46:07.777Z,14512.00
2018-04-02T09:47:07.853Z,14652.00
2018-04-02T09:48:07.923Z,14328.00
2018-04-02T09:49:07.974Z,13948.00
2018-04-02T09:50:08.030Z,13520.00
2018-04-02T09:51:08.126Z,13124.00
2018-04-02T09:52:08.149Z,13044.00
2018-04-02T09:53:08.270Z,12944.00
2018-04-02T09:54:08.332Z,13264.00
2018-04-02T09:55:08.370Z,13220.00
2018-04-02T09:56:08.442Z,13484.00
2018-04-02T09:57:08.482Z,13580.00
2018-04-02T09:58:08.536Z,13256.00
2018-04-02T09:59:08.601Z,12516.00
2018-04-02T10:00:08.682Z,11376.00
2018-04-02T10:01:08.753Z,10524.00
2018-04-02T10:02:08.806Z,9812.00
2018-04-02T10:03:09.422Z,9448.00
2018-04-02T10:04:09.074Z,9360.00
2018-04-02T10:05:09.065Z,9832.00
2018-04-02T10:06:09.086Z,10484.00
2018-04-02T10:07:09.114Z,10796.00
2018-04-02T10:08:09.183Z,10536.00
2018-04-02T10:09:09.289Z,10288.00
2018-04-02T10:10:09.546Z,10172.00
2018-04-02T10:11:09.390Z,10204.00
2018-04-02T10:12:09.442Z,10172.00
2018-04-02T10:13:09.495Z,9964.00
2018-04-02T10:14:09.622Z,9924.00
2018-04-02T10:15:09.646Z,10064.00
2018-04-02T10:16:09.726Z,10168.00
2018-04-02T10:17:09.779Z,10292.00
2018-04-02T10:18:09.943Z,10736.00
2018-04-02T10:19:09.895Z,11112.00
2018-04-02T10:20:09.959Z,10748.00
2018-04-02T10:21:10.070Z,10788.00
2018-04-02T10:22:10.083Z,10596.00
2018-04-02T10:23:10.146Z,10852.00
2018-04-02T10:24:10.211Z,11256.00
2018-04-02T10:25:10.439Z,12088.00
2018-04-02T10:26:10.357Z,13204.00
2018-04-02T10:27:10.426Z,13340.00
2018-04-02T10:28:10.484Z,13288.00
2018-04-02T10:29:10.539Z,12796.00
2018-04-02T10:30:10.598Z,12260.00
2018-04-02T10:31:10.675Z,11336.00
2018-04-02T10:32:10.810Z,11300.00
2018-04-02T10:33:10.815Z,11600.00
2018-04-02T10:34:10.856Z,11800.00
2018-04-02T10:35:10.950Z,11888.00
2018-04-02T10:36:11.029Z,12076.00
2018-04-02T10:37:11.045Z,12388.00
2018-04-02T10:38:11.110Z,12252.00
2018-04-02T10:39:11.172Z,12224.00
2018-04-02T10:40:11.251Z,11356.00
2018-04-02T10:41:11.308Z,10372.00
2018-04-02T10:42:11.363Z,9452.00
2018-04-02T10:43:11.430Z,8936.00
2018-04-02T10:44:11.495Z,8612.00
2018-04-02T10:45:11.563Z,8504.00
2018-04-02T10:46:11.636Z,8676.00
2018-04-02T10:47:11.688Z,8692.00
2018-04-02T10:48:11.751Z,8648.00
2018-04-02T10:49:11.816Z,8656.00
2018-04-02T10:50:11.891Z,8652.00
2018-04-02T10:51:11.955Z,8808.00
2018-04-02T10:52:12.011Z,9040.00
2018-04-02T10:53:12.081Z,8856.00
2018-04-02T10:54:12.140Z,8744.00
2018-04-02T10:55:12.220Z,8800.00
2018-04-02T10:56:12.268Z,8948.00
2018-04-02T10:57:12.336Z,8932.00
2018-04-02T10:58:12.400Z,9112.00
2018-04-02T10:59:12.464Z,9288.00
2018-04-02T11:00:12.540Z,9468.00
2018-04-02T11:01:12.607Z,9376.00
2018-04-02T11:02:12.655Z,9128.00
2018-04-02T11:03:12.720Z,8948.00
2018-04-02T11:04:12.788Z,8956.00
2018-04-02T11:05:13.040Z,9224.00
2018-04-02T11:06:12.927Z,9464.00
2018-04-02T11:07:12.980Z,9604.00
2018-04-02T11:08:13.045Z,9584.00
2018-04-02T11:09:13.117Z,9688.00
2018-04-02T11:10:13.204Z,9540.00
2018-04-02T11:11:13.245Z,9280.00
2018-04-02T11:12:13.304Z,9264.00
2018-04-02T11:13:13.368Z,9080.00
2018-04-02T11:14:13.469Z,8812.00
2018-04-02T11:15:13.505Z,8428.00
2018-04-02T11:16:13.584Z,8056.00
2018-04-02T11:17:13.633Z,7756.00
2018-04-02T11:18:13.700Z,7568.00
2018-04-02T11:19:13.757Z,7200.00
2018-04-02T11:20:13.828Z,7016.00
2018-04-02T11:21:13.907Z,7024.00
2018-04-02T11:22:13.952Z,6960.00
2018-04-02T11:23:14.024Z,6952.00
2018-04-02T11:24:14.085Z,7104.00
2018-04-02T11:25:14.164Z,7348.00
2018-04-02T11:26:14.216Z,7888.00
2018-04-02T11:27:14.278Z,8284.00
2018-04-02T11:28:14.340Z,8340.00
2018-04-02T11:29:14.415Z,8360.00
2018-04-02T11:30:14.481Z,8196.00
2018-04-02T11:31:14.549Z,8132.00
2018-04-02T11:32:14.601Z,8072.00
2018-04-02T11:33:14.665Z,7716.00
2018-04-02T11:34:14.729Z,7272.00
2018-04-02T11:35:14.802Z,7140.00
2018-04-02T11:36:14.866Z,7116.00
2018-04-02T11:37:14.929Z,7124.00
2018-04-02T11:38:14.993Z,7200.00
2018-04-02T11:39:15.057Z,7500.00
2018-04-02T11:40:15.278Z,8180.00
2018-04-02T11:41:15.216Z,9132.00
2018-04-02T11:42:15.249Z,9648.00
2018-04-02T11:43:15.313Z,10632.00
2018-04-02T11:44:15.378Z,10280.00
2018-04-02T11:45:15.565Z,10056.00
2018-04-02T11:46:15.818Z,9496.00
2018-04-02T11:47:15.574Z,8944.00
2018-04-02T11:48:15.638Z,8676.00
2018-04-02T11:49:15.702Z,8716.00
2018-04-02T11:50:15.766Z,8672.00
2018-04-02T11:51:15.842Z,8720.00
2018-04-02T11:52:15.902Z,8760.00
2018-04-02T11:53:15.986Z,9044.00
2018-04-02T11:54:16.071Z,9548.00
2018-04-02T11:55:16.170Z,10236.00
2018-04-02T11:56:16.170Z,10324.00
2018-04-02T11:57:16.281Z,10180.00
2018-04-02T11:58:16.334Z,10280.00
2018-04-02T11:59:16.410Z,10040.00
2018-04-02T12:00:16.966Z,10480.00
2018-04-02T12:01:16.511Z,10564.00
2018-04-02T12:02:16.555Z,10896.00
2018-04-02T12:03:16.610Z,10936.00
2018-04-02T12:04:16.674Z,11052.00
2018-04-02T12:05:16.746Z,10664.00
2018-04-02T12:06:16.823Z,10916.00
2018-04-02T12:07:16.883Z,10400.00
2018-04-02T12:08:16.937Z,10800.00
2018-04-02T12:09:17.044Z,9740.00
2018-04-02T12:10:17.071Z,9268.00
2018-04-02T12:11:17.146Z,9100.00
2018-04-02T12:12:17.206Z,8996.00
2018-04-02T12:13:17.295Z,8748.00
2018-04-02T12:14:17.384Z,8276.00
2018-04-02T12:15:17.391Z,8192.00
2018-04-02T12:16:17.462Z,8336.00
2018-04-02T12:17:17.531Z,8408.00
2018-04-02T12:18:17.591Z,8196.00
2018-04-02T12:19:17.650Z,8136.00
2018-04-02T12:20:17.720Z,8116.00
2018-04-02T12:21:17.792Z,7836.00
2018-04-02T12:22:17.855Z,7584.00
2018-04-02T12:23:17.915Z,7100.00
2018-04-02T12:24:17.981Z,6296.00
2018-04-02T12:25:18.048Z,5672.00
2018-04-02T12:26:18.272Z,5388.00
2018-04-02T12:27:18.176Z,5208.00
2018-04-02T12:28:18.244Z,5120.00
2018-04-02T12:29:18.303Z,5216.00
2018-04-02T12:30:18.373Z,5324.00
2018-04-02T12:31:18.435Z,5424.00
2018-04-02T12:32:18.508Z,5616.00